createdAt,value
2023-07-10T00:01:06.214Z,99888.84
2023-07-10T00:03:33.680Z,99887.34
2023-07-10T00:06:01.066Z,99891.53
2023-07-10T00:08:28.328Z,99886.16
2023-07-10T00:10:55.232Z,99890.00
2023-07-10T00:13:25.150Z,99891.50
2023-07-10T00:15:53.560Z,99886.91
2023-07-10T00:18:22.849Z,99891.06
2023-07-10T00:20:50.717Z,99897.19
2023-07-10T00:23:18.298Z,99899.81
2023-07-10T00:25:45.164Z,99898.69
2023-07-10T00:28:20.368Z,99894.84
2023-07-10T00:30:48.798Z,99894.44
2023-07-10T00:33:18.802Z,99903.22
2023-07-10T00:35:46.120Z,99895.97
2023-07-10T00:38:19.100Z,99896.31
2023-07-10T00:40:48.165Z,99898.97
2023-07-10T00:43:25.642Z,99894.00
2023-07-10T00:45:52.907Z,99898.94
2023-07-10T00:48:35.755Z,99894.00
2023-07-10T00:51:06.197Z,99893.19
2023-07-10T00:53:36.732Z,99893.97
2023-07-10T00:56:04.710Z,99893.16
2023-07-10T00:58:43.392Z,99905.44
2023-07-10T01:01:15.039Z,99897.75
2023-07-10T01:03:43.215Z,99894.31
2023-07-10T01:06:14.726Z,99905.44
2023-07-10T01:08:44.056Z,99903.94
2023-07-10T01:11:10.843Z,99903.53
2023-07-10T01:13:41.308Z,99906.63
2023-07-10T01:16:08.693Z,99898.59
2023-07-10T01:18:37.147Z,99896.31
2023-07-10T01:21:09.992Z,99892.53
2023-07-10T01:23:36.771Z,99895.59
2023-07-10T01:26:05.493Z,99894.09
2023-07-10T01:28:35.017Z,99889.53
2023-07-10T01:31:04.709Z,99891.47
2023-07-10T01:33:36.871Z,99885.75
2023-07-10T01:36:04.652Z,99893.03
2023-07-10T01:38:37.026Z,99891.13
2023-07-10T01:41:12.809Z,99894.97
2023-07-10T01:43:39.510Z,99893.44
2023-07-10T01:46:18.508Z,99895.38
2023-07-10T01:48:46.372Z,99896.53
2023-07-10T01:51:13.115Z,99888.91
2023-07-10T01:53:40.582Z,99898.06
2023-07-10T01:56:07.490Z,99894.28
2023-07-10T01:58:34.230Z,99899.66
2023-07-10T02:01:01.772Z,99894.31
2023-07-10T02:03:28.594Z,99894.31
2023-07-10T02:05:55.362Z,99897.75
2023-07-10T02:08:22.078Z,99893.56
2023-07-10T02:10:48.868Z,99890.88
2023-07-10T02:13:15.601Z,99890.50
2023-07-10T02:15:42.338Z,99890.13
2023-07-10T02:18:09.291Z,99885.16
2023-07-10T02:20:35.998Z,99885.94
2023-07-10T02:23:02.695Z,99888.22
2023-07-10T02:25:29.969Z,99884.41
2023-07-10T02:27:56.694Z,99889.75
2023-07-10T02:30:23.655Z,99884.41
2023-07-10T02:32:50.821Z,99887.84
2023-07-10T02:35:17.602Z,99887.84
2023-07-10T02:37:44.321Z,99885.19
2023-07-10T02:40:11.145Z,99891.28
2023-07-10T02:42:37.939Z,99891.69
2023-07-10T02:45:04.839Z,99889.75
2023-07-10T02:47:31.621Z,99890.16
2023-07-10T02:49:58.324Z,99883.28
2023-07-10T02:52:25.172Z,99892.81
2023-07-10T02:54:51.864Z,99883.28
2023-07-10T02:57:18.605Z,99888.25
2023-07-10T02:59:45.510Z,99888.63
2023-07-10T03:02:12.262Z,99879.84
2023-07-10T03:04:39.076Z,99885.19
2023-07-10T03:07:06.081Z,99884.81
2023-07-10T03:09:32.825Z,99890.53
2023-07-10T03:11:59.530Z,99884.44
2023-07-10T03:14:26.306Z,99885.56
2023-07-10T03:16:53.458Z,99887.09
2023-07-10T03:19:20.290Z,99879.88
2023-07-10T03:21:47.090Z,99885.19
2023-07-10T03:24:13.763Z,99890.56
2023-07-10T03:26:40.433Z,99887.88
2023-07-10T03:29:14.925Z,99885.56
2023-07-10T03:31:42.308Z,99877.97
2023-07-10T03:34:09.329Z,99882.13
2023-07-10T03:36:36.030Z,99886.72
2023-07-10T03:39:02.735Z,99889.03
2023-07-10T03:41:29.624Z,99879.13
2023-07-10T03:43:56.516Z,99882.91
2023-07-10T03:46:23.562Z,99876.81
2023-07-10T03:48:50.402Z,99886.38
2023-07-10T03:51:17.638Z,99878.34
2023-07-10T03:53:45.057Z,99884.47
2023-07-10T03:56:11.944Z,99884.81
2023-07-10T03:58:43.005Z,99892.84
2023-07-10T04:01:10.775Z,99885.22
2023-07-10T04:03:39.121Z,99884.47
2023-07-10T04:06:08.480Z,99887.50
2023-07-10T04:08:37.321Z,99884.81
2023-07-10T04:11:12.050Z,99885.56
2023-07-10T04:13:39.215Z,99885.97
2023-07-10T04:16:13.135Z,99876.41
2023-07-10T04:18:40.921Z,99882.91
2023-07-10T04:21:11.599Z,99889.75
2023-07-10T04:23:38.375Z,99892.81
2023-07-10T04:26:05.355Z,99885.53
2023-07-10T04:28:32.313Z,99888.22
2023-07-10T04:30:59.077Z,99887.47
2023-07-10T04:33:26.531Z,99892.03
2023-07-10T04:35:56.148Z,99884.72
2023-07-10T04:38:28.336Z,99891.94
2023-07-10T04:40:56.653Z,99893.84
2023-07-10T04:43:25.530Z,99893.06
2023-07-10T04:45:55.176Z,99884.22
2023-07-10T04:48:22.899Z,99885.72
2023-07-10T04:50:51.455Z,99887.97
2023-07-10T04:53:19.292Z,99894.03
2023-07-10T04:55:47.794Z,99897.81
2023-07-10T04:58:14.492Z,99892.03
2023-07-10T05:00:41.322Z,99895.78
2023-07-10T05:03:08.078Z,99896.91
2023-07-10T05:05:34.844Z,99905.22
2023-07-10T05:08:01.605Z,99910.56
2023-07-10T05:10:29.025Z,99902.03
2023-07-10T05:12:55.830Z,99906.53
2023-07-10T05:15:22.566Z,99906.50
2023-07-10T05:17:49.325Z,99910.66
2023-07-10T05:20:16.145Z,99915.53
2023-07-10T05:22:42.926Z,99908.13
2023-07-10T05:25:10.887Z,99906.84
2023-07-10T05:27:38.559Z,99909.44
2023-07-10T05:30:06.578Z,99902.41
2023-07-10T05:32:33.378Z,99916.53
2023-07-10T05:35:00.309Z,99911.09
2023-07-10T05:37:27.624Z,99915.22
2023-07-10T05:39:54.469Z,99916.66
2023-07-10T05:42:21.303Z,99910.41
2023-07-10T05:44:48.160Z,99914.84
2023-07-10T05:47:14.918Z,99916.59
2023-07-10T05:49:42.058Z,99914.09
2023-07-10T05:52:08.824Z,99910.06
2023-07-10T05:54:35.527Z,99912.19
2023-07-10T05:57:02.223Z,99911.28
2023-07-10T05:59:29.030Z,99917.94
2023-07-10T06:01:56.006Z,99910.44
2023-07-10T06:04:22.968Z,99915.22
2023-07-10T06:06:49.694Z,99907.28
2023-07-10T06:09:16.569Z,99909.69
2023-07-10T06:11:43.316Z,99916.69
2023-07-10T06:14:10.173Z,99912.53
2023-07-10T06:16:36.972Z,99908.06
2023-07-10T06:19:03.782Z,99907.44
2023-07-10T06:21:30.502Z,99907.13
2023-07-10T06:23:57.240Z,99907.63
2023-07-10T06:26:23.931Z,99904.28
2023-07-10T06:28:50.625Z,99911.63
2023-07-10T06:31:17.423Z,99913.25
2023-07-10T06:33:44.254Z,99912.16
2023-07-10T06:36:11.090Z,99917.19
2023-07-10T06:38:37.835Z,99910.41
2023-07-10T06:41:07.145Z,99909.63
2023-07-10T06:43:34.458Z,99909.31
2023-07-10T06:46:01.253Z,99916.34
2023-07-10T06:48:28.195Z,99907.41
2023-07-10T06:50:56.531Z,99910.59
2023-07-10T06:53:27.398Z,99902.78
2023-07-10T06:56:05.322Z,99901.59
2023-07-10T06:58:33.942Z,99907.00
2023-07-10T07:01:02.204Z,99905.44
2023-07-10T07:03:31.875Z,99902.03
2023-07-10T07:05:58.773Z,99912.72
2023-07-10T07:08:26.277Z,99905.53
2023-07-10T07:10:54.332Z,99906.25
2023-07-10T07:13:22.478Z,99899.75
2023-07-10T07:15:51.174Z,99905.38
2023-07-10T07:18:18.057Z,99898.81
2023-07-10T07:20:44.769Z,99890.75
2023-07-10T07:23:11.468Z,99896.91
2023-07-10T07:25:38.210Z,99893.47
2023-07-10T07:28:05.204Z,99896.22
2023-07-10T07:30:32.876Z,99897.75
2023-07-10T07:33:00.413Z,99903.78
2023-07-10T07:35:27.793Z,99901.50
2023-07-10T07:37:54.573Z,99904.50
2023-07-10T07:40:21.358Z,99904.81
2023-07-10T07:42:48.526Z,99894.78
2023-07-10T07:45:16.306Z,99894.78
2023-07-10T07:47:43.306Z,99900.91
2023-07-10T07:50:10.676Z,99901.91
2023-07-10T07:52:37.755Z,99905.44
2023-07-10T07:55:05.470Z,99902.88
2023-07-10T07:57:32.254Z,99901.25
2023-07-10T07:59:59.521Z,99893.66
2023-07-10T08:02:27.071Z,99904.50
2023-07-10T08:04:54.172Z,99891.97
2023-07-10T08:07:20.982Z,99891.63
2023-07-10T08:09:47.677Z,99893.84
2023-07-10T08:12:14.432Z,99884.19
2023-07-10T08:14:41.761Z,99888.41
2023-07-10T08:17:08.697Z,99889.91
2023-07-10T08:19:35.688Z,99895.03
2023-07-10T08:22:02.459Z,99884.09
2023-07-10T08:24:29.226Z,99885.97
2023-07-10T08:26:57.167Z,99883.22
2023-07-10T08:29:26.800Z,99876.41
2023-07-10T08:31:55.249Z,99875.72
2023-07-10T08:34:22.306Z,99874.31
2023-07-10T08:36:51.204Z,99868.41
2023-07-10T08:39:17.952Z,99871.94
2023-07-10T08:41:45.031Z,99869.28
2023-07-10T08:44:12.943Z,99863.34
2023-07-10T08:46:39.709Z,99866.09
2023-07-10T08:49:36.388Z,99868.06
2023-07-10T08:52:12.428Z,99862.22
2023-07-10T08:54:39.567Z,99867.13
2023-07-10T08:57:18.317Z,99870.06
2023-07-10T09:00:05.742Z,99866.31
2023-07-10T09:02:43.801Z,99869.81
2023-07-10T09:05:23.619Z,99876.28
2023-07-10T09:07:51.171Z,99866.13
2023-07-10T09:10:22.959Z,99865.44
2023-07-10T09:12:54.935Z,99867.66
2023-07-10T09:15:30.389Z,99868.56
2023-07-10T09:18:23.030Z,99872.38
2023-07-10T09:20:51.895Z,99865.28
2023-07-10T09:23:26.600Z,99856.50
2023-07-10T09:25:58.370Z,99863.06
2023-07-10T09:28:25.862Z,99854.38
2023-07-10T09:31:01.781Z,99851.13
2023-07-10T09:33:46.727Z,99849.78
2023-07-10T09:36:22.665Z,99849.03
2023-07-10T09:38:51.481Z,99845.59
2023-07-10T09:41:27.531Z,99842.31
2023-07-10T09:43:59.711Z,99840.94
2023-07-10T09:46:32.777Z,99838.19
2023-07-10T09:49:02.022Z,99828.63
2023-07-10T09:51:29.380Z,99838.03
2023-07-10T09:54:05.296Z,99841.75
2023-07-10T09:56:39.527Z,99844.47
2023-07-10T09:59:22.234Z,99843.69
2023-07-10T10:01:51.663Z,99821.72
2023-07-10T10:04:24.622Z,99825.44
2023-07-10T10:07:06.112Z,99820.97
2023-07-10T10:09:34.934Z,99826.97
2023-07-10T10:12:26.195Z,99824.50
2023-07-10T10:14:57.918Z,99819.94
2023-07-10T10:17:26.273Z,99820.09
2023-07-10T10:19:58.974Z,99821.19
2023-07-10T10:22:29.887Z,99816.13
2023-07-10T10:24:56.792Z,99813.44
2023-07-10T10:27:39.474Z,99810.28
2023-07-10T10:30:33.041Z,99808.16
2023-07-10T10:33:25.740Z,99812.72
2023-07-10T10:35:55.851Z,99817.25
2023-07-10T10:38:36.469Z,99802.16
2023-07-10T10:41:30.398Z,99806.53
2023-07-10T10:44:00.427Z,99805.00
2023-07-10T10:46:32.878Z,99799.66
2023-07-10T10:49:39.047Z,99800.94
2023-07-10T10:52:17.843Z,99796.28
2023-07-10T10:54:50.610Z,99792.94
2023-07-10T10:57:35.166Z,99789.69
2023-07-10T11:00:20.381Z,99797.78
2023-07-10T11:03:08.845Z,99790.50
2023-07-10T11:05:43.493Z,99785.75
2023-07-10T11:08:16.530Z,99791.81
2023-07-10T11:10:43.860Z,99793.84
2023-07-10T11:13:28.610Z,99785.00
2023-07-10T11:15:56.655Z,99782.13
2023-07-10T11:18:23.750Z,99787.66
2023-07-10T11:20:50.670Z,99788.88
2023-07-10T11:23:35.854Z,99784.78
2023-07-10T11:26:08.448Z,99783.72
2023-07-10T11:28:35.501Z,99782.03
2023-07-10T11:31:39.706Z,99785.69
2023-07-10T11:34:06.553Z,99775.44
2023-07-10T11:36:46.800Z,99778.31
2023-07-10T11:39:30.896Z,99778.84
2023-07-10T11:41:57.542Z,99767.84
2023-07-10T11:44:30.586Z,99769.53
2023-07-10T11:47:08.955Z,99775.91
2023-07-10T11:50:06.034Z,99765.63
2023-07-10T11:52:34.015Z,99764.09
2023-07-10T11:55:03.738Z,99765.47
2023-07-10T11:57:35.090Z,99759.06
2023-07-10T12:00:22.090Z,99752.59
2023-07-10T12:02:53.684Z,99760.88
2023-07-10T12:05:26.396Z,99758.53
2023-07-10T12:08:05.427Z,99755.38
2023-07-10T12:10:37.265Z,99752.38
2023-07-10T12:13:15.142Z,99753.47
2023-07-10T12:15:42.526Z,99744.38
2023-07-10T12:18:09.628Z,99744.06
2023-07-10T12:20:36.995Z,99733.75
2023-07-10T12:23:13.890Z,99726.28
2023-07-10T12:25:51.677Z,99732.69
2023-07-10T12:28:25.701Z,99719.28
2023-07-10T12:30:54.870Z,99715.63
2023-07-10T12:33:39.839Z,99715.00
2023-07-10T12:36:26.746Z,99717.47
2023-07-10T12:38:58.281Z,99716.84
2023-07-10T12:41:25.534Z,99714.97
2023-07-10T12:43:54.809Z,99721.88
2023-07-10T12:46:26.834Z,99712.38
2023-07-10T12:48:57.262Z,99716.63
2023-07-10T12:51:30.459Z,99708.97
2023-07-10T12:54:00.496Z,99711.06
2023-07-10T12:56:37.097Z,99711.94
2023-07-10T12:59:13.446Z,99717.56
2023-07-10T13:01:47.973Z,99722.59
2023-07-10T13:04:22.975Z,99716.34
2023-07-10T13:09:55.419Z,99707.06
2023-07-10T13:12:33.976Z,99712.38
2023-07-10T13:15:01.639Z,99713.53
2023-07-10T13:17:33.695Z,99716.22
2023-07-10T13:20:08.483Z,99704.50
2023-07-10T13:22:36.415Z,99705.94
2023-07-10T13:25:06.626Z,99699.00
2023-07-10T13:27:33.684Z,99707.09
2023-07-10T13:30:00.423Z,99697.09
2023-07-10T13:32:27.397Z,99688.59
2023-07-10T13:34:54.612Z,99703.78
2023-07-10T13:37:24.495Z,99699.34
2023-07-10T13:39:52.543Z,99714.72
2023-07-10T13:42:20.819Z,99708.41
2023-07-10T13:44:47.962Z,99713.59
2023-07-10T13:47:17.446Z,99710.22
2023-07-10T13:49:44.568Z,99711.72
2023-07-10T13:52:20.681Z,99709.59
2023-07-10T13:54:47.456Z,99703.41
2023-07-10T13:57:28.978Z,99696.84
2023-07-10T13:59:58.786Z,99702.69
2023-07-10T14:02:36.218Z,99694.69
2023-07-10T14:05:06.684Z,99690.56
2023-07-10T14:07:34.495Z,99682.75
2023-07-10T14:10:01.950Z,99675.44
2023-07-10T14:12:34.072Z,99673.00
2023-07-10T14:15:02.266Z,99666.91
2023-07-10T14:17:31.561Z,99663.50
2023-07-10T14:19:58.641Z,99654.88
2023-07-10T14:22:25.385Z,99656.66
2023-07-10T14:24:52.125Z,99650.41
2023-07-10T14:27:24.186Z,99647.16
2023-07-10T14:29:52.220Z,99650.22
2023-07-10T14:32:21.279Z,99652.06
2023-07-10T14:34:48.636Z,99649.59
2023-07-10T14:37:28.503Z,99646.41
2023-07-10T14:39:55.266Z,99647.06
2023-07-10T14:42:25.358Z,99647.25
2023-07-10T14:44:52.660Z,99648.31
2023-07-10T14:47:19.406Z,99657.91
2023-07-10T14:49:46.845Z,99661.63
2023-07-10T14:52:19.182Z,99663.03
2023-07-10T14:54:46.503Z,99669.53
2023-07-10T14:57:39.734Z,99673.16
2023-07-10T15:00:29.592Z,99670.53
2023-07-10T15:02:56.424Z,99662.44
2023-07-10T15:05:24.723Z,99663.00
2023-07-10T15:07:54.580Z,99655.94
2023-07-10T15:10:26.564Z,99648.69
2023-07-10T15:13:01.434Z,99657.19
2023-07-10T15:15:32.039Z,99651.75
2023-07-10T15:17:59.088Z,99641.09
2023-07-10T15:20:25.987Z,99643.63
2023-07-10T15:22:52.772Z,99643.25
2023-07-10T15:25:22.873Z,99636.16
2023-07-10T15:27:50.614Z,99626.66
2023-07-10T15:30:20.383Z,99632.53
2023-07-10T15:32:48.319Z,99641.88
2023-07-10T15:35:19.982Z,99633.72
2023-07-10T15:37:47.199Z,99638.06
2023-07-10T15:40:17.899Z,99633.06
2023-07-10T15:42:49.701Z,99637.00
2023-07-10T15:45:18.247Z,99636.31
2023-07-10T15:47:49.626Z,99624.88
2023-07-10T15:50:17.811Z,99629.03
2023-07-10T15:52:47.076Z,99624.97
2023-07-10T15:55:24.877Z,99625.56
2023-07-10T15:57:53.319Z,99619.59
2023-07-10T16:00:22.289Z,99611.88
2023-07-10T16:02:50.193Z,99600.69
2023-07-10T16:05:25.864Z,99589.50
2023-07-10T16:07:54.028Z,99597.19
2023-07-10T16:10:21.524Z,99583.03
2023-07-10T16:12:50.567Z,99587.00
2023-07-10T16:15:22.490Z,99587.50
2023-07-10T16:17:51.188Z,99574.31
2023-07-10T16:20:20.285Z,99583.03
2023-07-10T16:22:54.878Z,99573.03
2023-07-10T16:25:21.625Z,99566.03
2023-07-10T16:27:48.352Z,99564.03
2023-07-10T16:30:17.212Z,99568.25
2023-07-10T16:32:45.130Z,99566.69
2023-07-10T16:35:24.196Z,99562.94
2023-07-10T16:37:52.132Z,99566.63
2023-07-10T16:40:26.326Z,99563.59
2023-07-10T16:42:55.497Z,99562.56
2023-07-10T16:45:27.634Z,99561.72
2023-07-10T16:47:55.104Z,99570.84
2023-07-10T16:50:23.410Z,99582.00
2023-07-10T16:52:50.801Z,99583.19
2023-07-10T16:55:20.239Z,99578.69
2023-07-10T16:57:48.470Z,99578.84
2023-07-10T17:00:17.847Z,99584.44
2023-07-10T17:02:53.961Z,99587.72
2023-07-10T17:05:20.940Z,99596.69
2023-07-10T17:07:47.679Z,99604.44
2023-07-10T17:10:14.618Z,99598.47
2023-07-10T17:12:45.099Z,99612.91
2023-07-10T17:15:15.480Z,99618.44
2023-07-10T17:17:42.478Z,99621.94
2023-07-10T17:20:14.813Z,99622.25
2023-07-10T17:22:42.246Z,99635.88
2023-07-10T17:25:17.116Z,99660.81
2023-07-10T17:27:44.055Z,99683.75
2023-07-10T17:30:16.008Z,99688.94
2023-07-10T17:32:43.261Z,99679.03
2023-07-10T17:35:18.737Z,99665.09
2023-07-10T17:37:49.978Z,99658.44
2023-07-10T17:40:17.491Z,99650.69
2023-07-10T17:42:44.849Z,99651.19
2023-07-10T17:45:18.205Z,99645.94
2023-07-10T17:47:45.190Z,99647.94
2023-07-10T17:50:16.194Z,99644.31
2023-07-10T17:52:43.588Z,99637.09
2023-07-10T17:55:18.688Z,99639.16
2023-07-10T17:57:45.856Z,99647.31
2023-07-10T18:00:13.472Z,99625.47
2023-07-10T18:02:43.998Z,99617.78
2023-07-10T18:05:21.220Z,99629.56
2023-07-10T18:07:48.055Z,99625.28
2023-07-10T18:10:14.816Z,99631.84
2023-07-10T18:12:41.895Z,99636.31
2023-07-10T18:15:17.058Z,99646.97
2023-07-10T18:17:45.058Z,99650.22
2023-07-10T18:20:13.023Z,99661.78
2023-07-10T18:22:41.360Z,99679.78
2023-07-10T18:25:19.245Z,99684.25
2023-07-10T18:27:46.847Z,99670.09
2023-07-10T18:30:17.147Z,99657.78
2023-07-10T18:32:44.672Z,99658.97
2023-07-10T18:35:19.696Z,99663.75
2023-07-10T18:37:48.930Z,99682.06
2023-07-10T18:40:15.974Z,99672.13
2023-07-10T18:42:42.898Z,99670.25
2023-07-10T18:45:17.308Z,99670.72
2023-07-10T18:47:44.191Z,99664.81
2023-07-10T18:50:16.047Z,99663.13
2023-07-10T18:52:43.181Z,99666.25
2023-07-10T18:55:18.934Z,99672.56
2023-07-10T18:57:47.755Z,99673.31
2023-07-10T19:00:22.672Z,99678.72
2023-07-10T19:02:50.185Z,99666.94
2023-07-10T19:05:17.307Z,99674.00
2023-07-10T19:07:44.274Z,99689.44
2023-07-10T19:10:20.397Z,99705.28
2023-07-10T19:12:47.388Z,99709.28
2023-07-10T19:15:14.155Z,99712.53
2023-07-10T19:17:41.898Z,99720.75
2023-07-10T19:20:20.021Z,99731.78
2023-07-10T19:23:44.169Z,99736.00
2023-07-10T19:26:10.848Z,99750.25
2023-07-10T19:28:37.602Z,99753.91
2023-07-10T19:31:05.606Z,99768.81
2023-07-10T19:33:38.317Z,99781.59
2023-07-10T19:36:11.425Z,99761.91
2023-07-10T19:38:42.651Z,99757.38
2023-07-10T19:41:10.898Z,99752.69
2023-07-10T19:43:37.729Z,99745.50
2023-07-10T19:46:05.364Z,99749.06
2023-07-10T19:48:35.957Z,99744.97
2023-07-10T19:51:03.522Z,99744.06
2023-07-10T19:53:31.882Z,99740.78
2023-07-10T19:56:01.104Z,99734.84
2023-07-10T19:58:32.744Z,99729.28
2023-07-10T20:01:00.119Z,99723.31
2023-07-10T20:03:30.145Z,99724.66
2023-07-10T20:05:57.037Z,99717.63
2023-07-10T20:08:35.273Z,99720.69
2023-07-10T20:11:07.566Z,99716.97
2023-07-10T20:13:35.806Z,99701.00
2023-07-10T20:16:23.296Z,99689.75
2023-07-10T20:18:50.004Z,99677.59
2023-07-10T20:21:16.772Z,99681.53
2023-07-10T20:23:43.470Z,99686.34
2023-07-10T20:26:16.017Z,99690.38
2023-07-10T20:28:43.653Z,99682.81
2023-07-10T20:31:13.013Z,99688.03
2023-07-10T20:33:40.049Z,99682.47
2023-07-10T20:36:17.088Z,99694.06
2023-07-10T20:38:44.896Z,99694.22
2023-07-10T20:41:13.500Z,99696.56
2023-07-10T20:43:40.262Z,99691.25
2023-07-10T20:46:17.449Z,99687.25
2023-07-10T20:48:44.449Z,99676.75
2023-07-10T20:51:25.107Z,99687.22
2023-07-10T20:53:53.358Z,99688.06
2023-07-10T20:56:28.340Z,99682.81
2023-07-10T20:58:56.729Z,99685.63
2023-07-10T21:01:29.343Z,99676.47
2023-07-10T21:03:57.987Z,99673.16
2023-07-10T21:06:28.816Z,99662.91
2023-07-10T21:08:57.620Z,99662.56
2023-07-10T21:11:29.521Z,99661.88
2023-07-10T21:13:57.007Z,99652.28
2023-07-10T21:16:26.479Z,99645.06
2023-07-10T21:18:53.850Z,99634.38
2023-07-10T21:21:21.043Z,99629.00
2023-07-10T21:23:49.065Z,99624.53
2023-07-10T21:26:17.739Z,99619.00
2023-07-10T21:28:50.370Z,99624.75
2023-07-10T21:31:20.840Z,99626.63
2023-07-10T21:33:48.232Z,99622.44
2023-07-10T21:36:16.570Z,99619.38
2023-07-10T21:38:43.322Z,99621.69
2023-07-10T21:41:26.510Z,99623.94
2023-07-10T21:43:55.273Z,99627.75
2023-07-10T21:46:32.305Z,99632.25
2023-07-10T21:48:59.758Z,99632.94
2023-07-10T21:51:27.963Z,99643.69
2023-07-10T21:53:55.106Z,99634.44
2023-07-10T21:56:29.905Z,99635.94
2023-07-10T21:59:01.978Z,99629.06
2023-07-10T22:01:30.674Z,99632.94
2023-07-10T22:03:58.501Z,99628.38
2023-07-10T22:06:27.668Z,99633.03
2023-07-10T22:08:54.802Z,99629.66
2023-07-10T22:11:26.732Z,99637.03
2023-07-10T22:13:53.463Z,99636.41
2023-07-10T22:16:31.024Z,99633.44
2023-07-10T22:19:03.259Z,99628.53
2023-07-10T22:21:33.919Z,99628.94
2023-07-10T22:24:01.496Z,99639.81
2023-07-10T22:26:29.021Z,99633.81
2023-07-10T22:28:56.016Z,99632.38
2023-07-10T22:31:25.299Z,99632.06
2023-07-10T22:33:52.489Z,99643.25
2023-07-10T22:36:21.972Z,99638.03
2023-07-10T22:38:48.877Z,99635.06
2023-07-10T22:41:33.218Z,99639.75
2023-07-10T22:44:08.767Z,99632.63
2023-07-10T22:46:39.215Z,99624.63
2023-07-10T22:49:10.639Z,99622.06
2023-07-10T22:51:37.445Z,99624.41
2023-07-10T22:54:05.122Z,99617.97
2023-07-10T22:56:41.339Z,99623.78
2023-07-10T22:59:19.697Z,99626.50
2023-07-10T23:01:48.894Z,99617.41
2023-07-10T23:04:17.902Z,99609.00
2023-07-10T23:06:44.665Z,99607.84
2023-07-10T23:09:12.203Z,99606.69
2023-07-10T23:11:38.984Z,99612.06
2023-07-10T23:14:05.929Z,99610.91
2023-07-10T23:16:32.913Z,99613.66
2023-07-10T23:19:00.599Z,99608.78
2023-07-10T23:21:28.896Z,99614.56
2023-07-10T23:23:55.998Z,99612.34
2023-07-10T23:26:26.555Z,99619.28
2023-07-10T23:28:53.874Z,99613.94
2023-07-10T23:31:24.825Z,99620.44
2023-07-10T23:33:52.027Z,99610.09
2023-07-10T23:36:20.358Z,99615.84
2023-07-10T23:38:47.159Z,99613.94
2023-07-10T23:41:14.225Z,99607.06
2023-07-10T23:43:41.283Z,99610.09
2023-07-10T23:46:08.584Z,99609.38
2023-07-10T23:48:35.773Z,99619.31
2023-07-10T23:51:03.113Z,99624.72
2023-07-10T23:53:30.408Z,99620.88
2023-07-10T23:55:57.845Z,99621.72
2023-07-10T23:58:24.611Z,99616.34
